Terminal Aerodrome Forecast
Issued by NWS Goodland, KS

Home | Current Version | Previous Version | Text Only | Print | Product List | Glossary On
Versions: 1 2 3 4 5 6 7 8 9 10 11 12 13 14 15 16
000
FTUS43 KGLD 220541 AAC
TAFGLD
TAF AMD
KGLD 220541Z 2206/2306 12016KT P6SM BKN040
     FM220700 13015KT P6SM OVC030
     FM221200 16015KT P6SM OVC025
     FM221600 16017G25KT P6SM BKN060
     FM221800 17022G30KT P6SM BKN250
     FM230200 16018G26KT P6SM SCT040 BKN150=

USA.gov is the U.S. government's official web portal to all federal, state and local government web resources and services.